Time;durP1;ratioP1;P1;durP2;ratioP2;P2;SDS_P1;SDS_P2;PMS_P1;PMS_P2;Temp;Humidity;BMP_temperature;BMP_pressure;BME280_temperature;BME280_humidity;BME280_pressure;Samples;Min_cycle;Max_cycle;Signal;HPM_P1;HPM_P2
2021/08/13 00:02:27;;;;;;;8.43;4.45;;;23.20;98.90;;;;;;5031330;28;20030;-73
2021/08/13 00:04:53;;;;;;;7.75;5.35;;;23.20;98.80;;;;;;5046260;28;20559;-73
2021/08/13 00:07:18;;;;;;;8.07;5.30;;;23.20;98.90;;;;;;5031383;28;20053;-73
2021/08/13 00:09:44;;;;;;;8.90;5.15;;;23.20;99.20;;;;;;5031354;28;20026;-73
2021/08/13 00:12:10;;;;;;;7.55;4.50;;;23.20;99.10;;;;;;5031259;28;20348;-73
2021/08/13 00:14:35;;;;;;;8.02;5.10;;;23.20;99.20;;;;;;5031434;28;20079;-73
2021/08/13 00:17:01;;;;;;;7.28;4.32;;;23.20;99.20;;;;;;5031090;28;20029;-73
2021/08/13 00:19:27;;;;;;;9.10;5.32;;;23.20;99.20;;;;;;5030999;28;20037;-73
2021/08/13 00:21:53;;;;;;;8.38;5.20;;;23.20;99.30;;;;;;5030950;28;20041;-73
2021/08/13 00:24:19;;;;;;;8.60;5.07;;;23.20;99.30;;;;;;5031619;28;20021;-73
2021/08/13 00:26:44;;;;;;;6.95;4.45;;;23.20;99.40;;;;;;5031166;28;20021;-73
2021/08/13 00:29:10;;;;;;;6.95;4.90;;;23.20;99.40;;;;;;5031140;28;20046;-73
2021/08/13 00:31:35;;;;;;;7.75;4.75;;;23.20;99.60;;;;;;5030982;28;20021;-73
2021/08/13 00:34:01;;;;;;;7.85;4.47;;;23.20;99.60;;;;;;5030722;28;20029;-73
2021/08/13 00:36:26;;;;;;;5.30;4.30;;;23.20;99.60;;;;;;5029572;28;20439;-73
2021/08/13 00:38:54;;;;;;;7.93;4.80;;;23.20;99.60;;;;;;5030934;28;20441;-73
2021/08/13 00:41:20;;;;;;;7.10;4.10;;;23.20;99.60;;;;;;5031257;28;20040;-73
2021/08/13 00:43:46;;;;;;;5.30;4.10;;;23.20;99.50;;;;;;5031107;28;20033;-73
2021/08/13 00:46:13;;;;;;;7.68;4.57;;;23.20;99.50;;;;;;5030901;28;20022;-73
2021/08/13 00:48:38;;;;;;;6.25;4.30;;;23.20;99.60;;;;;;5030967;28;20052;-73
2021/08/13 00:51:05;;;;;;;5.10;4.25;;;23.20;99.50;;;;;;5030377;28;20478;-73
2021/08/13 00:53:30;;;;;;;6.57;4.80;;;23.10;99.50;;;;;;5031057;28;20029;-73
2021/08/13 00:55:57;;;;;;;6.63;4.18;;;23.10;99.40;;;;;;5030807;28;20021;-73
2021/08/13 00:58:23;;;;;;;5.50;3.70;;;23.20;99.80;;;;;;5030798;28;20087;-72
2021/08/13 01:00:51;;;;;;;7.38;4.25;;;23.10;99.40;;;;;;5046264;28;20037;-73
2021/08/13 01:03:17;;;;;;;6.45;3.97;;;23.10;99.40;;;;;;5031222;28;20401;-73
2021/08/13 01:05:42;;;;;;;12.35;4.68;;;23.10;99.30;;;;;;5030823;28;20025;-73
2021/08/13 01:08:08;;;;;;;4.72;3.65;;;23.10;99.30;;;;;;5030739;28;20029;-72
2021/08/13 01:10:41;;;;;;;6.47;4.18;;;23.10;99.30;;;;;;5030880;28;20022;-72
2021/08/13 01:13:19;;;;;;;5.10;4.07;;;23.10;99.30;;;;;;5030706;28;20025;-73
2021/08/13 01:15:53;;;;;;;5.30;3.78;;;23.10;99.30;;;;;;5031024;28;20113;-73
2021/08/13 01:18:27;;;;;;;5.05;4.03;;;23.10;99.40;;;;;;5030632;28;20061;-73
2021/08/13 01:21:16;;;;;;;5.65;4.53;;;23.10;99.40;;;;;;5030397;28;20037;-72
2021/08/13 01:23:53;;;;;;;6.20;3.90;;;23.10;99.40;;;;;;5030548;28;20013;-72
2021/08/13 01:26:19;;;;;;;7.38;3.97;;;23.10;99.30;;;;;;5030991;28;20109;-73
2021/08/13 01:29:10;;;;;;;5.40;3.95;;;23.00;99.20;;;;;;5030571;28;20048;-73
2021/08/13 01:31:59;;;;;;;8.35;4.72;;;23.00;99.20;;;;;;5030549;28;20461;-73
2021/08/13 01:34:25;;;;;;;5.30;3.85;;;23.00;99.10;;;;;;5029921;28;20038;-73
2021/08/13 01:36:56;;;;;;;7.13;4.78;;;23.00;99.00;;;;;;5030230;28;20030;-73
2021/08/13 01:39:22;;;;;;;6.65;4.38;;;23.00;99.00;;;;;;5030512;28;20079;-73
2021/08/13 01:41:49;;;;;;;5.00;3.70;;;23.00;99.00;;;;;;5030666;28;20025;-73
2021/08/13 01:44:15;;;;;;;5.10;3.83;;;23.00;99.00;;;;;;5032817;28;20022;-74
2021/08/13 01:46:42;;;;;;;8.20;4.40;;;23.00;98.90;;;;;;5033986;28;20029;-73
2021/08/13 01:49:10;;;;;;;6.50;3.95;;;23.00;98.90;;;;;;5033768;28;20025;-73
2021/08/13 01:51:36;;;;;;;4.63;3.28;;;23.00;98.80;;;;;;5033998;28;20025;-73
2021/08/13 01:54:04;;;;;;;7.38;3.80;;;23.00;98.70;;;;;;5033619;28;20025;-73
2021/08/13 01:56:30;;;;;;;5.10;3.65;;;22.90;98.70;;;;;;5033721;28;20021;-73
2021/08/13 01:58:57;;;;;;;6.15;4.07;;;23.00;98.80;;;;;;5033598;28;20040;-73
2021/08/13 02:01:23;;;;;;;6.25;4.05;;;23.00;98.70;;;;;;5049153;28;20398;-73
2021/08/13 02:03:49;;;;;;;4.65;3.33;;;22.90;98.60;;;;;;5032350;28;20025;-73
2021/08/13 02:06:16;;;;;;;7.00;3.80;;;22.90;98.60;;;;;;5033539;28;20091;-73
2021/08/13 02:08:43;;;;;;;3.97;3.15;;;23.00;98.60;;;;;;5033681;28;20393;-72
2021/08/13 02:11:09;;;;;;;6.40;4.60;;;22.90;98.50;;;;;;5033422;28;20036;-73
2021/08/13 02:13:37;;;;;;;6.22;3.80;;;22.90;98.50;;;;;;5033338;28;20026;-72
2021/08/13 02:16:08;;;;;;;5.25;3.65;;;22.90;98.50;;;;;;5033083;28;20021;-73
2021/08/13 02:18:36;;;;;;;5.13;3.72;;;22.90;98.40;;;;;;5033292;28;20103;-73
2021/08/13 02:21:07;;;;;;;4.50;3.30;;;22.90;98.40;;;;;;5033189;28;20045;-73
2021/08/13 02:23:33;;;;;;;5.50;4.07;;;22.90;98.50;;;;;;5033258;28;20029;-73
2021/08/13 02:25:58;;;;;;;6.25;3.90;;;22.90;98.50;;;;;;5032938;28;20026;-73
2021/08/13 02:28:24;;;;;;;5.05;3.30;;;22.90;98.40;;;;;;5033323;28;20070;-73
2021/08/13 02:30:50;;;;;;;6.53;4.18;;;22.90;98.40;;;;;;5033167;28;20148;-72
2021/08/13 02:33:15;;;;;;;6.15;3.78;;;22.90;98.30;;;;;;5033218;28;20048;-73
2021/08/13 02:35:45;;;;;;;4.30;3.75;;;22.90;98.30;;;;;;5033053;28;20196;-73
2021/08/13 02:38:16;;;;;;;4.50;3.45;;;22.80;98.10;;;;;;5032697;28;20021;-73
2021/08/13 02:40:50;;;;;;;6.03;3.65;;;22.80;98.10;;;;;;5032970;28;20041;-73
2021/08/13 02:43:30;;;;;;;5.43;3.33;;;22.80;98.10;;;;;;5033374;28;20509;-73
2021/08/13 02:45:59;;;;;;;6.70;4.25;;;22.80;98.10;;;;;;5032851;28;20033;-73
2021/08/13 02:48:26;;;;;;;5.55;3.30;;;22.80;98.10;;;;;;5032808;28;20028;-73
2021/08/13 02:50:54;;;;;;;4.80;3.60;;;22.80;98.00;;;;;;5032752;28;20444;-73
2021/08/13 02:53:21;;;;;;;4.65;3.50;;;22.80;98.00;;;;;;5032888;28;20477;-73
2021/08/13 02:56:02;;;;;;;5.20;3.92;;;22.80;97.90;;;;;;5032850;28;20044;-73
2021/08/13 02:58:39;;;;;;;4.85;2.88;;;22.80;97.90;;;;;;5032739;28;20097;-73
2021/08/13 03:01:06;;;;;;;4.13;3.45;;;22.80;97.80;;;;;;5032457;28;20596;-73
2021/08/13 03:03:32;;;;;;;5.53;3.35;;;22.80;97.80;;;;;;5032331;28;20052;-73
2021/08/13 03:06:00;;;;;;;5.82;3.50;;;22.80;97.80;;;;;;5032059;28;20087;-73
2021/08/13 03:08:26;;;;;;;6.25;3.70;;;22.80;97.70;;;;;;5032432;28;20053;-73
2021/08/13 03:10:52;;;;;;;5.38;3.72;;;22.80;97.70;;;;;;5030910;28;20064;-73
2021/08/13 03:13:21;;;;;;;5.45;3.05;;;22.70;97.70;;;;;;5032763;28;20110;-73
2021/08/13 03:15:48;;;;;;;5.55;3.75;;;22.70;97.70;;;;;;5032709;28;20026;-73
2021/08/13 03:18:14;;;;;;;4.60;3.22;;;22.80;97.70;;;;;;5031905;28;20033;-73
2021/08/13 03:20:40;;;;;;;4.75;3.67;;;22.70;97.60;;;;;;5031963;28;20116;-73
2021/08/13 03:23:07;;;;;;;4.40;3.22;;;22.70;97.60;;;;;;5031909;28;20463;-73
2021/08/13 03:25:33;;;;;;;5.80;3.45;;;22.70;97.50;;;;;;5030990;28;20504;-73
2021/08/13 03:27:59;;;;;;;4.72;3.42;;;22.70;97.50;;;;;;5031979;28;20029;-73
2021/08/13 03:30:24;;;;;;;4.00;2.78;;;22.70;97.50;;;;;;5047205;28;20030;-73
2021/08/13 03:32:50;;;;;;;5.35;3.30;;;22.70;97.80;;;;;;5032295;28;20032;-73
2021/08/13 03:35:17;;;;;;;5.90;3.70;;;22.70;97.40;;;;;;5031953;28;20397;-72
2021/08/13 03:37:42;;;;;;;5.35;3.33;;;22.70;97.40;;;;;;5031517;28;20021;-72
2021/08/13 03:40:09;;;;;;;5.00;3.10;;;22.70;97.70;;;;;;5032041;28;20029;-72
2021/08/13 03:42:35;;;;;;;4.20;3.25;;;22.70;97.40;;;;;;5031717;28;20025;-73
2021/08/13 03:45:00;;;;;;;4.57;3.72;;;22.70;97.40;;;;;;5031604;28;20037;-72
2021/08/13 03:47:26;;;;;;;7.18;3.33;;;22.70;97.40;;;;;;5031477;28;20025;-72
2021/08/13 03:49:51;;;;;;;4.97;3.42;;;22.70;97.30;;;;;;5047082;28;20021;-72
2021/08/13 03:52:17;;;;;;;3.38;2.80;;;22.60;97.20;;;;;;5031660;28;20564;-72
2021/08/13 03:54:43;;;;;;;5.47;3.45;;;22.60;97.20;;;;;;5031704;28;20026;-72
2021/08/13 03:57:09;;;;;;;4.85;3.20;;;22.60;97.20;;;;;;5031348;28;20036;-72
2021/08/13 03:59:34;;;;;;;5.53;3.58;;;22.60;97.10;;;;;;5031404;28;20041;-72
2021/08/13 04:02:00;;;;;;;4.72;3.30;;;22.60;97.10;;;;;;5031533;28;20083;-72
2021/08/13 04:04:26;;;;;;;4.00;3.33;;;22.60;97.10;;;;;;5046532;28;20553;-72
2021/08/13 04:06:51;;;;;;;3.90;2.70;;;22.60;97.10;;;;;;5030876;28;20481;-72
2021/08/13 04:09:17;;;;;;;6.15;3.60;;;22.60;97.10;;;;;;5031063;28;20383;-72
2021/08/13 04:11:42;;;;;;;3.78;2.58;;;22.60;97.00;;;;;;5031322;28;20112;-72
2021/08/13 04:14:08;;;;;;;3.53;2.92;;;22.60;97.00;;;;;;5031385;28;20032;-73
2021/08/13 04:16:34;;;;;;;4.60;3.33;;;22.60;97.00;;;;;;5031071;28;20036;-73
2021/08/13 04:18:59;;;;;;;4.25;3.20;;;22.60;96.90;;;;;;5031003;28;20030;-72
2021/08/13 04:21:25;;;;;;;3.97;3.08;;;22.50;96.90;;;;;;5030804;28;20478;-72
2021/08/13 04:23:51;;;;;;;3.88;2.90;;;22.50;96.90;;;;;;5031431;28;20026;-72
2021/08/13 04:26:17;;;;;;;4.43;3.30;;;22.60;96.90;;;;;;5030992;28;20029;-73
2021/08/13 04:28:42;;;;;;;3.67;3.15;;;22.50;96.80;;;;;;5030975;28;20021;-72
2021/08/13 04:31:08;;;;;;;6.00;3.00;;;22.50;96.80;;;;;;5031181;28;20021;-72
2021/08/13 04:33:34;;;;;;;3.97;2.63;;;22.50;96.60;;;;;;5030662;28;20029;-72
2021/08/13 04:36:00;;;;;;;3.67;2.83;;;22.50;96.60;;;;;;5030720;28;20025;-72
2021/08/13 04:38:25;;;;;;;4.95;3.05;;;22.50;96.60;;;;;;5030758;28;20025;-73
2021/08/13 04:40:51;;;;;;;3.42;2.97;;;22.50;96.60;;;;;;5031339;28;20045;-72
2021/08/13 04:43:17;;;;;;;4.30;2.63;;;22.50;96.60;;;;;;5030850;28;20022;-73
2021/08/13 04:45:43;;;;;;;3.92;3.28;;;22.50;96.50;;;;;;5031078;28;20028;-72
2021/08/13 04:48:08;;;;;;;3.50;2.83;;;22.50;96.50;;;;;;5031031;28;20026;-73
2021/08/13 04:50:34;;;;;;;3.05;2.65;;;22.50;96.50;;;;;;5030661;28;20017;-73
2021/08/13 04:53:00;;;;;;;3.25;2.58;;;22.50;96.50;;;;;;5031077;28;20397;-72
2021/08/13 04:55:26;;;;;;;4.25;3.00;;;22.50;96.40;;;;;;5030584;28;20508;-73
2021/08/13 04:57:53;;;;;;;3.75;2.80;;;22.50;96.40;;;;;;5031343;28;20026;-72
2021/08/13 05:00:20;;;;;;;3.47;2.63;;;22.50;96.30;;;;;;5030554;28;20025;-72
2021/08/13 05:02:46;;;;;;;3.67;2.75;;;22.40;96.20;;;;;;5030689;28;20036;-72
2021/08/13 05:05:12;;;;;;;4.28;2.75;;;22.40;96.20;;;;;;5030520;28;20026;-72
2021/08/13 05:07:38;;;;;;;3.13;2.35;;;22.40;96.20;;;;;;5030664;28;20033;-72
2021/08/13 05:10:13;;;;;;;3.85;2.90;;;22.50;96.20;;;;;;5030913;28;20389;-72
2021/08/13 05:12:40;;;;;;;3.10;2.40;;;22.40;96.10;;;;;;5030619;28;20033;-72
2021/08/13 05:15:07;;;;;;;3.67;2.70;;;22.40;96.10;;;;;;5030625;28;20025;-72
2021/08/13 05:17:33;;;;;;;4.50;3.17;;;22.40;96.10;;;;;;5030555;28;20079;-72
2021/08/13 05:19:59;;;;;;;3.90;2.55;;;22.50;96.00;;;;;;5034341;28;20451;-72
2021/08/13 05:22:24;;;;;;;4.25;3.03;;;22.40;96.00;;;;;;5034540;28;20030;-72
2021/08/13 05:24:50;;;;;;;4.75;3.05;;;22.40;95.90;;;;;;5034437;28;20018;-72
2021/08/13 05:27:15;;;;;;;3.60;2.80;;;22.40;95.90;;;;;;5034187;28;20037;-72
2021/08/13 05:29:41;;;;;;;3.90;2.67;;;22.40;95.90;;;;;;5034144;28;20029;-72
2021/08/13 05:32:07;;;;;;;2.92;2.17;;;22.40;95.90;;;;;;5034200;28;20440;-72
2021/08/13 05:34:33;;;;;;;3.75;3.00;;;22.40;95.80;;;;;;5033904;28;20029;-72
2021/08/13 05:36:59;;;;;;;3.50;2.40;;;22.40;95.80;;;;;;5034277;28;20049;-72
2021/08/13 05:39:24;;;;;;;3.72;2.80;;;22.40;96.10;;;;;;5034174;28;20034;-73
2021/08/13 05:41:50;;;;;;;3.40;2.78;;;22.40;95.70;;;;;;5034315;28;20381;-72
2021/08/13 05:44:16;;;;;;;3.92;3.10;;;22.40;95.70;;;;;;5049206;28;20041;-72
2021/08/13 05:46:41;;;;;;;4.22;2.90;;;22.40;95.60;;;;;;5033786;28;20029;-72
2021/08/13 05:49:07;;;;;;;3.33;2.72;;;22.40;95.60;;;;;;5034085;28;20018;-72
2021/08/13 05:51:32;;;;;;;4.22;2.72;;;22.40;95.60;;;;;;5033590;28;20021;-72
2021/08/13 05:53:58;;;;;;;3.75;2.58;;;22.40;95.60;;;;;;5033815;28;20024;-72
2021/08/13 05:56:24;;;;;;;4.22;2.92;;;22.40;95.60;;;;;;5033730;28;20025;-72
2021/08/13 05:58:49;;;;;;;3.42;2.50;;;22.40;95.60;;;;;;5033840;28;20117;-72
2021/08/13 06:01:15;;;;;;;4.10;2.60;;;22.30;95.50;;;;;;5033025;28;20116;-72
2021/08/13 06:03:41;;;;;;;5.68;2.33;;;22.40;95.40;;;;;;5033610;28;20397;-72
2021/08/13 06:06:07;;;;;;;3.40;2.45;;;22.30;95.40;;;;;;5033443;28;20509;-72
2021/08/13 06:08:32;;;;;;;3.97;2.70;;;22.30;95.30;;;;;;5033191;28;20029;-73
2021/08/13 06:10:58;;;;;;;3.70;2.55;;;22.30;95.40;;;;;;5033807;28;20050;-72
2021/08/13 06:13:23;;;;;;;4.85;2.53;;;22.30;95.40;;;;;;5033334;28;20097;-73
2021/08/13 06:15:49;;;;;;;3.40;2.70;;;22.30;95.30;;;;;;5033239;28;20025;-73
2021/08/13 06:18:15;;;;;;;4.18;2.53;;;22.30;95.30;;;;;;5033105;28;20033;-73
2021/08/13 06:20:41;;;;;;;3.95;2.78;;;22.40;95.30;;;;;;5033119;28;20065;-73
2021/08/13 06:23:06;;;;;;;3.78;2.95;;;22.30;95.30;;;;;;5033385;28;20508;-73
2021/08/13 06:25:32;;;;;;;3.20;2.42;;;22.30;95.30;;;;;;5032915;28;20104;-73
2021/08/13 06:27:58;;;;;;;4.25;3.08;;;22.30;95.30;;;;;;5033385;28;20032;-73
2021/08/13 06:30:23;;;;;;;3.83;3.08;;;22.30;95.30;;;;;;5033026;28;20021;-73
2021/08/13 06:32:51;;;;;;;3.05;2.45;;;22.30;95.30;;;;;;5033117;28;20029;-73
2021/08/13 06:35:16;;;;;;;4.47;3.10;;;22.30;95.20;;;;;;5032899;28;20389;-73
2021/08/13 06:37:47;;;;;;;3.45;2.63;;;22.30;95.20;;;;;;5033025;28;20040;-72
2021/08/13 06:40:13;;;;;;;3.47;2.63;;;22.30;95.20;;;;;;5032630;28;20095;-72
2021/08/13 06:42:39;;;;;;;3.03;2.38;;;22.30;95.20;;;;;;5032998;28;20018;-72
2021/08/13 06:45:11;;;;;;;4.18;2.92;;;22.30;95.10;;;;;;5032936;28;20025;-72
2021/08/13 06:47:37;;;;;;;4.15;2.75;;;22.30;95.10;;;;;;5032761;28;20021;-72
2021/08/13 06:50:04;;;;;;;3.25;2.53;;;22.30;95.10;;;;;;5032758;28;20028;-72
2021/08/13 06:52:30;;;;;;;3.20;2.30;;;22.30;95.10;;;;;;5032595;28;20455;-73
2021/08/13 06:54:55;;;;;;;3.80;2.58;;;22.30;95.10;;;;;;5033072;28;20108;-72
2021/08/13 06:57:21;;;;;;;3.00;2.60;;;22.30;95.10;;;;;;5032137;28;20033;-72
2021/08/13 06:59:47;;;;;;;3.53;2.40;;;22.30;95.10;;;;;;5032236;28;20389;-73
2021/08/13 07:02:12;;;;;;;3.40;2.42;;;22.30;95.10;;;;;;5047804;28;20076;-73
2021/08/13 07:04:38;;;;;;;3.20;2.55;;;22.30;95.10;;;;;;5032120;28;20021;-72
2021/08/13 07:07:03;;;;;;;4.35;2.28;;;22.30;95.10;;;;;;5032357;28;20519;-72
2021/08/13 07:09:29;;;;;;;2.80;2.30;;;22.30;95.00;;;;;;5031076;28;20040;-72
2021/08/13 07:11:55;;;;;;;3.47;2.47;;;22.30;95.10;;;;;;5032396;28;20109;-72
2021/08/13 07:14:20;;;;;;;2.65;2.20;;;22.30;95.00;;;;;;5031456;28;20029;-71
2021/08/13 07:16:47;;;;;;;3.55;2.42;;;22.30;95.00;;;;;;5030555;28;20061;-72
2021/08/13 07:19:12;;;;;;;5.57;2.53;;;22.30;95.00;;;;;;5030897;28;20029;-73
2021/08/13 07:21:39;;;;;;;3.35;2.33;;;22.30;94.90;;;;;;5031517;28;20103;-73
2021/08/13 07:24:05;;;;;;;3.15;2.60;;;22.30;94.80;;;;;;5031631;28;20428;-72
2021/08/13 07:26:30;;;;;;;4.00;2.08;;;22.40;94.80;;;;;;5031394;28;20042;-72
2021/08/13 07:28:56;;;;;;;5.32;2.50;;;22.40;94.80;;;;;;5031618;28;20036;-72
2021/08/13 07:31:22;;;;;;;7.65;2.50;;;22.40;94.80;;;;;;5031051;28;20104;-72
2021/08/13 07:33:48;;;;;;;6.68;2.40;;;22.40;94.70;;;;;;5031582;28;20030;-72
2021/08/13 07:36:13;;;;;;;4.45;2.05;;;22.40;94.70;;;;;;5030578;28;20022;-72
2021/08/13 07:38:42;;;;;;;3.65;2.38;;;22.40;94.60;;;;;;5029939;28;20034;-72
2021/08/13 07:41:09;;;;;;;5.25;2.58;;;22.40;94.60;;;;;;5042582;28;20044;-73
2021/08/13 07:43:35;;;;;;;3.28;2.38;;;22.40;94.50;;;;;;5029786;28;20500;-73
2021/08/13 07:46:02;;;;;;;5.05;2.42;;;22.40;94.50;;;;;;5030247;28;20029;-74
2021/08/13 07:48:28;;;;;;;3.83;2.70;;;22.40;94.40;;;;;;5029820;28;20025;-72
2021/08/13 07:50:53;;;;;;;8.05;2.25;;;22.40;94.50;;;;;;5028021;28;20025;-72
2021/08/13 07:53:19;;;;;;;6.22;3.35;;;22.40;94.20;;;;;;5033092;28;20100;-72
2021/08/13 07:55:44;;;;;;;4.80;2.90;;;22.40;94.10;;;;;;5029283;28;20064;-72
2021/08/13 07:58:10;;;;;;;5.35;3.10;;;22.40;93.60;;;;;;5027340;28;20033;-72
2021/08/13 08:00:36;;;;;;;6.38;3.10;;;22.40;93.40;;;;;;5030114;28;20069;-72
2021/08/13 08:03:02;;;;;;;7.05;2.60;;;22.50;93.10;;;;;;5030063;28;20437;-72
2021/08/13 08:05:28;;;;;;;4.70;2.90;;;22.40;92.70;;;;;;5029551;28;20044;-72
2021/08/13 08:07:53;;;;;;;6.18;2.85;;;22.40;92.60;;;;;;5029895;28;20029;-72
2021/08/13 08:10:20;;;;;;;5.53;2.60;;;22.50;92.80;;;;;;5029540;28;20083;-72
2021/08/13 08:12:46;;;;;;;7.50;2.90;;;22.50;92.60;;;;;;5031403;28;20032;-72
2021/08/13 08:15:12;;;;;;;15.38;3.00;;;22.50;93.00;;;;;;5029488;28;20017;-72
2021/08/13 08:17:38;;;;;;;4.32;2.45;;;22.50;93.20;;;;;;5029324;28;20112;-72
2021/08/13 08:20:05;;;;;;;4.80;2.53;;;22.50;93.10;;;;;;5044573;28;20124;-72
2021/08/13 08:22:31;;;;;;;6.65;2.80;;;22.60;93.20;;;;;;5028976;28;20029;-72
2021/08/13 08:24:57;;;;;;;7.80;3.00;;;22.50;92.90;;;;;;5029964;28;20023;-72
2021/08/13 08:27:23;;;;;;;6.22;3.25;;;22.60;93.10;;;;;;5029428;28;20101;-72
2021/08/13 08:29:48;;;;;;;7.13;2.95;;;22.60;93.00;;;;;;5029671;28;20025;-72
2021/08/13 08:32:14;;;;;;;9.50;3.22;;;22.60;92.90;;;;;;5029381;28;20021;-73
2021/08/13 08:34:40;;;;;;;5.68;2.70;;;;;;;;;;5028353;28;20091;-76
2021/08/13 08:37:09;;;;;;;5.80;3.28;;;;;;;;;;5041357;28;20504;-76
2021/08/13 08:39:36;;;;;;;5.68;2.75;;;22.70;99.90;;;;;;5021142;28;20040;-76
2021/08/13 08:42:02;;;;;;;6.63;2.92;;;22.30;94.90;;;;;;5028756;28;20375;-76
2021/08/13 08:44:27;;;;;;;7.70;2.42;;;22.50;94.40;;;;;;5030337;28;20021;-76
2021/08/13 08:46:55;;;;;;;5.10;2.40;;;22.50;94.30;;;;;;5030816;28;20405;-77
2021/08/13 08:49:22;;;;;;;8.18;2.58;;;22.60;93.70;;;;;;5030422;28;20435;-77
2021/08/13 08:51:52;;;;;;;5.70;2.60;;;22.60;93.30;;;;;;5031411;28;20379;-76
2021/08/13 08:54:24;;;;;;;5.45;2.55;;;22.70;93.00;;;;;;5034462;28;20033;-75
2021/08/13 08:56:50;;;;;;;11.25;3.47;;;22.70;93.30;;;;;;5034752;28;20025;-73
2021/08/13 08:59:17;;;;;;;9.13;2.90;;;22.80;92.70;;;;;;5033728;28;20546;-76
2021/08/13 09:01:44;;;;;;;6.40;2.53;;;22.80;92.50;;;;;;5035016;28;20534;-75
2021/08/13 09:04:09;;;;;;;9.00;3.38;;;22.90;92.70;;;;;;5034777;28;20477;-75
2021/08/13 09:06:40;;;;;;;9.38;3.00;;;22.90;92.50;;;;;;5034382;28;20033;-74
2021/08/13 09:09:06;;;;;;;10.00;3.58;;;22.90;92.00;;;;;;5034828;28;20028;-76
2021/08/13 09:11:32;;;;;;;7.43;2.88;;;22.90;91.80;;;;;;5034620;28;20022;-77
2021/08/13 09:14:07;;;;;;;9.10;2.95;;;22.90;91.60;;;;;;5035022;28;20029;-74
2021/08/13 09:16:33;;;;;;;8.13;3.30;;;23.00;91.70;;;;;;5034357;28;20100;-76
2021/08/13 09:19:02;;;;;;;7.50;3.00;;;23.00;91.90;;;;;;5020009;28;20528;-76
2021/08/13 09:21:28;;;;;;;7.97;2.95;;;23.00;91.80;;;;;;5032815;28;20037;-73
2021/08/13 09:23:59;;;;;;;7.95;3.05;;;23.00;91.40;;;;;;5021658;28;20574;-75
2021/08/13 09:26:25;;;;;;;4.70;2.33;;;23.00;91.30;;;;;;5029052;28;20021;-76
2021/08/13 09:28:58;;;;;;;7.05;2.63;;;23.10;91.20;;;;;;5033544;28;20029;-78
2021/08/13 09:31:28;;;;;;;8.50;2.65;;;23.10;91.30;;;;;;5033200;28;20070;-74
2021/08/13 09:33:56;;;;;;;8.13;3.05;;;23.10;91.20;;;;;;5033150;28;20029;-76
2021/08/13 09:36:24;;;;;;;7.70;2.78;;;23.10;91.30;;;;;;5032809;28;20025;-75
2021/08/13 09:39:10;;;;;;;6.28;2.70;;;23.10;91.30;;;;;;5029863;28;20560;-76
2021/08/13 09:41:54;;;;;;;8.30;2.80;;;23.10;91.20;;;;;;5027152;28;20107;-75
2021/08/13 09:44:24;;;;;;;11.95;2.85;;;23.10;91.20;;;;;;5032060;28;20108;-74
2021/08/13 09:46:59;;;;;;;4.22;2.53;;;23.20;91.20;;;;;;5032783;28;20056;-78
2021/08/13 09:49:25;;;;;;;7.57;2.28;;;23.20;91.10;;;;;;5032782;28;20409;-76
2021/08/13 09:51:51;;;;;;;7.18;2.25;;;23.20;91.20;;;;;;5027816;28;20117;-81
2021/08/13 09:54:17;;;;;;;6.40;2.40;;;23.20;91.20;;;;;;5031970;28;20112;-81
2021/08/13 09:56:42;;;;;;;6.60;2.92;;;23.20;91.20;;;;;;5033390;28;20030;-75
2021/08/13 09:59:09;;;;;;;8.00;3.72;;;23.20;91.10;;;;;;5033159;28;20014;-75
2021/08/13 10:01:45;;;;;;;4.90;2.78;;;23.20;91.20;;;;;;5032576;28;20084;-75
2021/08/13 10:04:12;;;;;;;4.55;2.22;;;23.10;91.20;;;;;;5031886;28;20370;-75
2021/08/13 10:06:39;;;;;;;7.00;2.65;;;23.10;91.30;;;;;;5032253;28;20025;-77
2021/08/13 10:09:06;;;;;;;5.60;2.70;;;23.10;91.20;;;;;;5032733;28;20021;-75
2021/08/13 10:11:35;;;;;;;8.52;2.75;;;23.20;91.20;;;;;;5033027;28;20095;-76
2021/08/13 10:14:03;;;;;;;10.73;2.53;;;23.20;91.20;;;;;;5032722;28;20083;-77
2021/08/13 10:16:29;;;;;;;8.63;2.72;;;23.20;91.10;;;;;;5047720;28;20374;-77
2021/08/13 10:18:55;;;;;;;5.80;2.22;;;23.20;91.00;;;;;;5032640;28;20040;-79
2021/08/13 10:21:25;;;;;;;8.20;2.00;;;23.20;91.00;;;;;;5032148;28;20041;-78
2021/08/13 10:23:52;;;;;;;5.32;2.58;;;23.20;90.80;;;;;;5032370;28;20033;-78
2021/08/13 10:26:20;;;;;;;7.00;2.20;;;23.20;90.80;;;;;;5032228;28;20025;-78
2021/08/13 10:28:47;;;;;;;5.65;2.80;;;23.20;90.70;;;;;;5032539;28;20075;-78
2021/08/13 10:31:17;;;;;;;5.03;2.55;;;23.20;90.70;;;;;;5032239;28;20032;-77
2021/08/13 10:33:43;;;;;;;6.30;2.50;;;23.30;90.60;;;;;;5032488;28;20017;-79
2021/08/13 10:36:10;;;;;;;5.53;2.10;;;23.30;90.40;;;;;;5032202;28;20021;-77
2021/08/13 10:38:37;;;;;;;4.13;2.40;;;23.30;90.30;;;;;;5032212;28;20017;-78
2021/08/13 10:41:06;;;;;;;5.22;2.55;;;23.40;90.20;;;;;;5031426;28;20497;-79
2021/08/13 10:43:38;;;;;;;10.77;2.30;;;23.40;90.00;;;;;;5032177;28;20021;-79
2021/08/13 10:46:08;;;;;;;4.82;2.28;;;23.50;90.00;;;;;;5032470;28;20460;-77
2021/08/13 10:48:36;;;;;;;4.20;2.17;;;23.50;89.80;;;;;;5032146;28;20500;-78
2021/08/13 10:51:02;;;;;;;5.32;2.30;;;23.60;89.60;;;;;;5047566;28;20026;-79
2021/08/13 10:53:31;;;;;;;4.65;2.40;;;23.60;89.30;;;;;;5031784;28;20022;-79
2021/08/13 10:55:58;;;;;;;7.60;2.58;;;23.60;88.90;;;;;;5031900;28;20382;-80
2021/08/13 10:58:36;;;;;;;5.15;2.42;;;23.60;88.80;;;;;;5031660;28;20099;-79
2021/08/13 11:01:08;;;;;;;6.43;2.40;;;23.70;88.80;;;;;;5032048;28;20515;-79
2021/08/13 11:03:39;;;;;;;4.25;2.10;;;23.70;88.50;;;;;;5032295;28;20104;-80
2021/08/13 11:06:05;;;;;;;5.53;2.20;;;23.80;88.10;;;;;;5030496;28;20025;-77
2021/08/13 11:08:40;;;;;;;4.60;2.70;;;23.90;88.20;;;;;;5013915;28;20033;-78
2021/08/13 11:11:07;;;;;;;6.63;2.63;;;23.90;87.70;;;;;;5031886;28;20022;-79
2021/08/13 11:13:45;;;;;;;8.82;2.53;;;23.90;87.20;;;;;;5031612;28;20448;-79
2021/08/13 11:16:25;;;;;;;4.40;2.40;;;24.00;87.20;;;;;;5031355;28;20034;-77
2021/08/13 11:18:56;;;;;;;5.78;3.00;;;23.90;86.90;;;;;;5031259;28;20029;-77
2021/08/13 11:21:46;;;;;;;7.25;2.70;;;23.90;86.80;;;;;;5030983;28;20044;-79
2021/08/13 11:24:13;;;;;;;4.70;2.00;;;23.80;87.20;;;;;;5029638;28;20102;-77
2021/08/13 11:26:48;;;;;;;4.22;2.40;;;23.80;87.30;;;;;;5031368;28;20603;-79
2021/08/13 11:29:34;;;;;;;6.13;2.22;;;23.80;87.40;;;;;;5030962;28;20482;-79
2021/08/13 11:32:08;;;;;;;4.90;2.70;;;23.80;87.20;;;;;;5031074;28;20064;-78
2021/08/13 11:34:52;;;;;;;6.05;2.47;;;23.90;87.40;;;;;;5046391;28;20067;-78
2021/08/13 11:37:41;;;;;;;4.35;2.20;;;24.00;87.00;;;;;;5030768;28;20025;-76
2021/08/13 11:40:13;;;;;;;5.13;2.20;;;24.10;86.60;;;;;;5042676;28;20038;-79
2021/08/13 11:42:48;;;;;;;5.22;2.50;;;24.20;86.10;;;;;;5031083;28;20021;-76
2021/08/13 11:45:15;;;;;;;4.97;2.50;;;24.30;85.90;;;;;;5030638;28;20025;-81
2021/08/13 11:47:48;;;;;;;4.88;2.60;;;24.30;85.40;;;;;;5034829;28;20025;-79
2021/08/13 11:50:14;;;;;;;3.45;2.15;;;24.40;84.90;;;;;;5030175;28;20390;-78
2021/08/13 11:52:51;;;;;;;4.40;2.20;;;24.50;84.20;;;;;;5031349;28;20026;-82
2021/08/13 11:55:18;;;;;;;6.47;2.25;;;24.50;84.00;;;;;;5021692;28;20113;-79
2021/08/13 11:57:44;;;;;;;5.10;2.60;;;24.60;83.50;;;;;;5030825;28;20013;-79
2021/08/13 12:00:30;;;;;;;4.63;2.80;;;24.60;84.60;;;;;;5030945;28;20039;-76
2021/08/13 12:03:00;;;;;;;5.78;2.55;;;24.60;83.50;;;;;;5030873;28;20561;-79
2021/08/13 12:05:28;;;;;;;3.92;2.20;;;24.60;83.40;;;;;;5030097;28;20037;-80
2021/08/13 12:07:59;;;;;;;5.07;2.55;;;24.60;83.70;;;;;;5027032;28;20056;-77
2021/08/13 12:10:25;;;;;;;5.55;2.38;;;24.70;83.70;;;;;;5031364;28;20071;-91
2021/08/13 12:12:51;;;;;;;4.45;2.13;;;24.70;83.60;;;;;;5031018;28;20104;-81
2021/08/13 12:15:30;;;;;;;5.32;2.25;;;24.70;83.40;;;;;;5030140;28;20029;-79
2021/08/13 12:17:56;;;;;;;5.60;2.35;;;24.80;83.10;;;;;;5026858;28;20029;-82
2021/08/13 12:20:22;;;;;;;6.53;2.15;;;24.80;83.30;;;;;;5029695;28;20022;-83
2021/08/13 12:22:48;;;;;;;6.38;2.67;;;24.90;83.40;;;;;;5030187;28;20032;-84
2021/08/13 12:25:14;;;;;;;4.35;2.25;;;24.90;83.00;;;;;;5029970;28;20030;-85
2021/08/13 12:27:42;;;;;;;4.25;2.60;;;25.00;82.90;;;;;;5030343;28;20033;-81
2021/08/13 12:30:16;;;;;;;13.93;8.43;;;25.00;82.90;;;;;;5029961;28;20107;-79
2021/08/13 12:32:43;;;;;;;13.38;9.35;;;25.00;83.50;;;;;;5030236;28;20032;-80
2021/08/13 12:35:12;;;;;;;15.88;10.88;;;25.00;83.60;;;;;;5030249;28;20017;-76
2021/08/13 12:37:39;;;;;;;19.55;13.15;;;25.00;83.90;;;;;;5031279;28;20029;-81
2021/08/13 12:40:08;;;;;;;27.88;15.70;;;25.00;84.40;;;;;;5045884;28;20045;-86
2021/08/13 12:42:33;;;;;;;27.40;16.08;;;25.10;85.00;;;;;;5029540;28;20022;-86
2021/08/13 12:45:00;;;;;;;28.08;15.77;;;25.10;85.00;;;;;;5029938;28;20092;-79
2021/08/13 12:47:26;;;;;;;33.42;22.17;;;25.20;84.90;;;;;;5029666;28;20022;-83
2021/08/13 12:49:53;;;;;;;29.67;18.88;;;25.30;85.40;;;;;;5030112;28;20032;-80